Terminal Aerodrome Forecast
Issued by NWS

Home | Current Version | Previous Version | Graphics & Text | Print | Product List | Glossary On
Versions: 1 2 3 4 5 6 7 8 9 10 11 12 13 14 15
000
FTUS43 KFGF 220500
TAFBJI
TAF
KBJI 220524Z 2206/2306 VRB03KT P6SM SKC
     FM220800 21006KT P6SM FEW250
     FM221700 21014G20KT P6SM BKN250=

USA.gov is the U.S. government's official web portal to all federal, state and local government web resources and services.